Time;durP1;ratioP1;P1;durP2;ratioP2;P2;SDS_P1;SDS_P2;PMS_P1;PMS_P2;Temp;Humidity;BMP_temperature;BMP_pressure;BME280_temperature;BME280_humidity;BME280_pressure;Samples;Min_cycle;Max_cycle;Signal;HPM_P1;HPM_P2
2021/03/05 00:00:33;;;;;;;21.33;3.73;;;23.20;97.20;;;;;;5057326;28;20179;-68
2021/03/05 00:03:01;;;;;;;20.83;3.47;;;23.00;97.40;;;;;;5056279;28;20259;-68
2021/03/05 00:05:29;;;;;;;14.47;3.60;;;23.10;97.40;;;;;;5057015;28;20211;-69
2021/03/05 00:07:56;;;;;;;23.83;3.50;;;23.10;97.10;;;;;;5057553;28;20262;-69
2021/03/05 00:10:30;;;;;;;19.40;3.13;;;23.20;96.90;;;;;;5058420;28;20646;-67
2021/03/05 00:12:58;;;;;;;14.30;3.30;;;23.30;96.30;;;;;;5053983;28;20172;-68
2021/03/05 00:15:27;;;;;;;14.20;2.90;;;23.00;96.70;;;;;;5058715;28;20180;-68
2021/03/05 00:17:56;;;;;;;27.53;3.43;;;23.00;96.80;;;;;;5058701;28;20194;-67
2021/03/05 00:20:26;;;;;;;31.17;4.53;;;23.50;96.70;;;;;;5057045;28;20213;-68
2021/03/05 00:22:54;;;;;;;17.97;3.47;;;24.20;95.50;;;;;;5058439;28;20265;-68
2021/03/05 00:25:22;;;;;;;12.87;3.43;;;24.60;94.50;;;;;;5057319;28;20203;-69
2021/03/05 00:27:50;;;;;;;14.17;2.90;;;24.90;93.80;;;;;;5057466;28;20219;-67
2021/03/05 00:30:18;;;;;;;22.60;3.33;;;24.90;93.90;;;;;;5057692;28;20638;-67
2021/03/05 00:32:45;;;;;;;20.37;3.47;;;24.50;94.00;;;;;;5054327;28;20639;-69
2021/03/05 00:35:16;;;;;;;19.20;3.17;;;24.10;94.00;;;;;;5058036;28;20176;-68
2021/03/05 00:37:44;;;;;;;18.97;3.80;;;24.00;94.50;;;;;;5058268;28;20179;-68
2021/03/05 00:40:16;;;;;;;20.00;4.03;;;24.40;93.90;;;;;;5057927;28;20208;-67
2021/03/05 00:42:45;;;;;;;20.60;3.43;;;24.80;93.60;;;;;;5058225;28;20175;-67
2021/03/05 00:45:16;;;;;;;26.00;4.00;;;24.70;93.30;;;;;;5057814;28;20636;-68
2021/03/05 00:47:43;;;;;;;18.43;3.27;;;24.70;93.20;;;;;;5057564;28;20601;-67
2021/03/05 00:50:12;;;;;;;17.87;3.27;;;24.60;93.00;;;;;;5056254;28;20650;-68
2021/03/05 00:52:41;;;;;;;14.73;3.87;;;24.40;93.10;;;;;;5057700;28;20176;-67
2021/03/05 00:55:10;;;;;;;22.57;3.53;;;24.20;93.30;;;;;;5058261;28;20175;-69
2021/03/05 00:57:38;;;;;;;19.33;3.47;;;23.90;93.80;;;;;;5054446;28;20547;-70
2021/03/05 01:00:12;;;;;;;21.33;3.60;;;23.50;93.60;;;;;;5059245;28;20186;-70
2021/03/05 01:02:39;;;;;;;21.37;3.20;;;23.50;93.80;;;;;;5054268;28;20184;-70
2021/03/05 01:05:07;;;;;;;19.60;3.17;;;23.90;93.70;;;;;;5053559;28;20266;-70
2021/03/05 01:07:35;;;;;;;15.70;3.40;;;24.20;92.70;;;;;;5052694;28;20195;-68
2021/03/05 01:10:05;;;;;;;22.10;3.93;;;24.70;92.20;;;;;;5053429;28;20183;-70
2021/03/05 01:12:33;;;;;;;19.20;3.10;;;24.40;91.80;;;;;;5053413;28;20673;-70
2021/03/05 01:15:02;;;;;;;21.77;3.40;;;24.00;92.50;;;;;;5053232;28;20180;-70
2021/03/05 01:17:29;;;;;;;11.83;4.00;;;24.10;92.40;;;;;;5052709;28;20559;-67
2021/03/05 01:19:56;;;;;;;18.50;3.17;;;24.30;91.50;;;;;;5053342;28;20188;-67
2021/03/05 01:22:24;;;;;;;17.23;3.40;;;24.50;91.40;;;;;;5053872;28;20192;-68
2021/03/05 01:24:51;;;;;;;15.17;3.47;;;24.30;91.50;;;;;;5053614;28;20227;-68
2021/03/05 01:27:19;;;;;;;23.13;3.53;;;24.20;92.10;;;;;;5050804;28;20288;-69
2021/03/05 01:29:46;;;;;;;22.60;4.17;;;24.00;91.80;;;;;;5054823;28;20199;-69
2021/03/05 01:32:14;;;;;;;15.33;3.20;;;24.20;91.80;;;;;;5053609;28;20543;-69
2021/03/05 01:34:41;;;;;;;19.77;3.57;;;24.20;91.70;;;;;;5054367;28;20188;-68
2021/03/05 01:37:08;;;;;;;23.70;4.50;;;24.50;91.40;;;;;;5054665;28;20217;-68
2021/03/05 01:39:36;;;;;;;15.53;3.53;;;24.50;91.20;;;;;;5050750;28;20187;-68
2021/03/05 01:42:04;;;;;;;19.53;3.37;;;24.60;90.80;;;;;;5053012;28;20224;-67
2021/03/05 01:44:31;;;;;;;13.50;3.50;;;24.90;90.30;;;;;;5053921;28;20303;-66
2021/03/05 01:46:59;;;;;;;18.40;3.77;;;24.90;90.00;;;;;;5053805;28;20184;-69
2021/03/05 01:49:26;;;;;;;18.03;3.07;;;24.70;90.10;;;;;;5051706;28;20214;-67
2021/03/05 01:51:54;;;;;;;18.40;3.27;;;24.80;90.40;;;;;;5047453;28;20188;-70
2021/03/05 01:54:21;;;;;;;17.47;3.30;;;24.90;90.30;;;;;;5052072;28;20206;-68
2021/03/05 01:56:51;;;;;;;17.17;4.43;;;24.90;90.10;;;;;;5047448;28;20180;-69
2021/03/05 01:59:36;;;;;;;16.83;3.40;;;24.70;90.10;;;;;;5053688;28;20192;-72
2021/03/05 02:02:09;;;;;;;20.80;3.57;;;24.70;90.00;;;;;;5052234;28;20211;-69
2021/03/05 02:04:38;;;;;;;16.07;3.17;;;24.90;88.20;;;;;;5052125;28;20207;-68
2021/03/05 02:07:06;;;;;;;15.07;3.30;;;25.10;88.40;;;;;;5053584;28;20180;-68
2021/03/05 02:09:35;;;;;;;18.40;3.47;;;25.10;87.00;;;;;;5053197;28;20199;-70
2021/03/05 02:12:04;;;;;;;17.30;3.50;;;24.90;87.30;;;;;;5053488;28;20614;-67
2021/03/05 02:14:32;;;;;;;13.40;2.93;;;24.80;88.10;;;;;;5046206;28;20191;-68
2021/03/05 02:17:14;;;;;;;17.13;3.23;;;25.00;88.00;;;;;;5049518;28;20598;-69
2021/03/05 02:20:15;;;;;;;12.83;3.30;;;24.90;86.30;;;;;;5053199;28;20218;-68
2021/03/05 02:23:27;;;;;;;12.73;3.57;;;25.00;86.30;;;;;;5049786;28;20298;-68
2021/03/05 02:26:30;;;;;;;13.87;2.97;;;25.30;86.10;;;;;;5047411;28;20233;-69
2021/03/05 02:29:29;;;;;;;16.23;3.60;;;25.30;85.40;;;;;;5047300;28;20183;-67
2021/03/05 02:32:07;;;;;;;19.70;3.40;;;25.50;84.80;;;;;;5031177;28;20702;-68
2021/03/05 02:34:38;;;;;;;12.83;2.70;;;25.90;84.80;;;;;;5050003;28;20259;-69
2021/03/05 02:37:12;;;;;;;16.40;3.40;;;25.60;83.80;;;;;;5047246;28;20704;-68
2021/03/05 02:39:39;;;;;;;12.57;2.80;;;25.40;84.10;;;;;;5051612;28;20232;-69
2021/03/05 02:42:10;;;;;;;15.13;2.97;;;25.10;85.10;;;;;;5051400;28;20194;-68
2021/03/05 02:45:06;;;;;;;18.50;3.03;;;25.20;85.40;;;;;;5052672;28;20738;-67
2021/03/05 02:47:34;;;;;;;15.43;3.63;;;25.20;85.00;;;;;;5052012;28;20188;-67
2021/03/05 02:50:04;;;;;;;16.47;3.40;;;25.30;85.30;;;;;;5052815;28;20164;-66
2021/03/05 02:52:34;;;;;;;17.07;3.07;;;25.30;85.50;;;;;;5052776;28;20321;-68
2021/03/05 02:55:06;;;;;;;19.13;3.67;;;25.20;84.70;;;;;;5053233;28;20187;-69
2021/03/05 02:57:38;;;;;;;18.60;3.77;;;25.40;85.10;;;;;;5052931;28;20188;-69
2021/03/05 03:00:08;;;;;;;16.90;3.47;;;25.70;84.20;;;;;;5053048;28;20229;-69
2021/03/05 03:02:37;;;;;;;18.53;3.77;;;25.70;83.70;;;;;;5052888;28;20176;-69
2021/03/05 03:05:06;;;;;;;16.20;3.33;;;25.80;83.20;;;;;;5052450;28;20212;-68
2021/03/05 03:07:36;;;;;;;18.17;3.43;;;26.00;83.60;;;;;;5052774;28;20214;-70
2021/03/05 03:10:06;;;;;;;14.93;3.37;;;26.00;83.40;;;;;;5067817;28;20551;-68
2021/03/05 03:12:35;;;;;;;17.87;3.43;;;26.30;82.50;;;;;;5052786;28;20271;-71
2021/03/05 03:15:05;;;;;;;18.17;3.67;;;26.10;82.00;;;;;;5042439;28;20185;-67
2021/03/05 03:17:33;;;;;;;12.50;3.00;;;25.90;82.20;;;;;;5047929;28;20172;-69
2021/03/05 03:20:02;;;;;;;13.83;2.83;;;26.00;81.90;;;;;;5051750;28;20172;-69
2021/03/05 03:22:29;;;;;;;14.00;3.20;;;26.10;81.50;;;;;;5052063;28;20179;-72
2021/03/05 03:24:57;;;;;;;15.07;3.73;;;26.10;82.10;;;;;;5051344;28;20217;-68
2021/03/05 03:27:24;;;;;;;14.83;3.37;;;26.20;82.50;;;;;;5052365;28;20521;-69
2021/03/05 03:29:51;;;;;;;17.80;3.10;;;26.70;81.30;;;;;;5052581;28;20172;-69
2021/03/05 03:32:20;;;;;;;18.87;2.97;;;26.90;79.50;;;;;;5052308;28;20203;-68
2021/03/05 03:34:47;;;;;;;15.10;2.90;;;26.80;78.80;;;;;;5052140;28;20215;-68
2021/03/05 03:37:18;;;;;;;13.03;3.03;;;26.60;80.60;;;;;;5052219;28;20261;-67
2021/03/05 03:39:46;;;;;;;17.53;3.13;;;26.60;80.30;;;;;;5052176;28;20176;-70
2021/03/05 03:42:13;;;;;;;11.73;3.00;;;26.80;79.80;;;;;;5052040;28;20572;-70
2021/03/05 03:44:41;;;;;;;12.33;3.17;;;27.00;77.40;;;;;;5051483;28;20642;-70
2021/03/05 03:47:08;;;;;;;17.40;3.40;;;26.70;78.20;;;;;;5037123;28;20181;-69
2021/03/05 03:49:52;;;;;;;11.40;2.60;;;26.80;79.00;;;;;;5051925;28;20184;-68
2021/03/05 03:52:42;;;;;;;16.90;2.80;;;26.70;78.40;;;;;;5066480;28;20271;-69
2021/03/05 03:55:10;;;;;;;13.00;3.00;;;26.90;78.60;;;;;;5051258;28;20198;-69
2021/03/05 03:57:41;;;;;;;15.20;2.90;;;27.00;77.90;;;;;;5050789;28;20635;-70
2021/03/05 04:00:11;;;;;;;13.63;2.73;;;27.30;77.70;;;;;;5050715;28;20642;-69
2021/03/05 04:02:39;;;;;;;13.33;2.97;;;27.10;77.20;;;;;;5050510;28;20226;-72
2021/03/05 04:05:21;;;;;;;13.13;2.40;;;27.40;76.90;;;;;;5064276;28;20637;-68
2021/03/05 04:07:50;;;;;;;13.07;2.70;;;27.70;75.80;;;;;;5049569;28;20208;-68
2021/03/05 04:10:19;;;;;;;15.87;3.00;;;27.40;76.00;;;;;;5050264;28;20202;-68
2021/03/05 04:12:49;;;;;;;16.80;3.73;;;27.20;76.70;;;;;;5049663;28;20209;-69
2021/03/05 04:15:18;;;;;;;16.53;3.43;;;27.10;77.60;;;;;;5051389;28;20180;-71
2021/03/05 04:17:46;;;;;;;15.20;2.90;;;27.50;76.40;;;;;;5051722;28;20176;-70
2021/03/05 04:20:15;;;;;;;13.80;2.73;;;27.50;76.70;;;;;;5051200;28;20176;-69
2021/03/05 04:22:44;;;;;;;14.50;2.33;;;27.60;76.70;;;;;;5051125;28;20184;-68
2021/03/05 04:25:14;;;;;;;15.13;2.90;;;27.50;76.40;;;;;;5050161;28;20269;-69
2021/03/05 04:27:42;;;;;;;9.73;2.70;;;27.90;75.40;;;;;;5051372;28;20216;-70
2021/03/05 04:30:10;;;;;;;15.57;2.50;;;28.40;74.80;;;;;;5051186;28;20188;-70
2021/03/05 04:32:40;;;;;;;11.23;2.80;;;28.30;74.10;;;;;;5048843;28;20585;-69
2021/03/05 04:35:11;;;;;;;19.40;2.80;;;27.30;74.80;;;;;;5049286;28;20191;-70
2021/03/05 04:37:39;;;;;;;22.43;2.50;;;26.90;76.60;;;;;;5049949;28;20556;-68
2021/03/05 04:40:09;;;;;;;12.63;3.03;;;26.00;76.50;;;;;;5071890;28;20226;-69
2021/03/05 04:42:37;;;;;;;15.67;2.63;;;25.70;77.80;;;;;;5059226;28;20677;-69
2021/03/05 04:45:06;;;;;;;15.57;3.07;;;25.30;79.00;;;;;;5053761;28;20207;-68
2021/03/05 04:47:34;;;;;;;15.77;2.70;;;25.30;79.40;;;;;;5055203;28;20270;-67
2021/03/05 04:50:03;;;;;;;14.43;3.00;;;24.70;79.30;;;;;;5054002;28;20198;-69
2021/03/05 04:52:30;;;;;;;13.00;2.83;;;24.50;80.60;;;;;;5055308;28;20196;-70
2021/03/05 04:54:58;;;;;;;16.87;3.30;;;24.50;80.60;;;;;;5054827;28;20547;-71
2021/03/05 04:57:25;;;;;;;14.80;3.13;;;24.30;81.20;;;;;;5055216;28;20517;-69
2021/03/05 04:59:52;;;;;;;13.23;3.20;;;24.20;81.50;;;;;;5054977;28;20207;-70
2021/03/05 05:02:20;;;;;;;10.50;2.37;;;24.20;80.60;;;;;;5054848;28;20653;-70
2021/03/05 05:04:47;;;;;;;11.07;3.13;;;24.20;81.10;;;;;;5053971;28;20207;-70
2021/03/05 05:07:15;;;;;;;10.67;2.43;;;24.40;81.30;;;;;;5054924;28;20267;-71
2021/03/05 05:09:42;;;;;;;14.80;2.37;;;24.50;81.40;;;;;;5054704;28;20210;-70
2021/03/05 05:12:10;;;;;;;16.03;2.90;;;24.70;80.40;;;;;;5054878;28;20176;-70
2021/03/05 05:14:37;;;;;;;13.97;2.97;;;24.70;80.50;;;;;;5054731;28;20180;-68
2021/03/05 05:17:05;;;;;;;12.37;2.70;;;26.00;78.60;;;;;;5054782;28;20282;-71
2021/03/05 05:19:32;;;;;;;12.03;3.27;;;27.10;76.10;;;;;;5053718;28;20180;-71
2021/03/05 05:21:59;;;;;;;11.73;2.93;;;27.30;74.50;;;;;;5052302;28;20332;-69
2021/03/05 05:24:27;;;;;;;15.57;2.63;;;27.20;74.80;;;;;;5052145;28;20216;-71
2021/03/05 05:26:54;;;;;;;12.90;2.93;;;27.70;73.40;;;;;;5053643;28;20212;-70
2021/03/05 05:29:22;;;;;;;10.03;2.97;;;27.60;73.90;;;;;;5037068;28;20664;-70
2021/03/05 05:31:49;;;;;;;9.23;2.60;;;27.80;72.60;;;;;;5051322;28;20184;-71
2021/03/05 05:34:17;;;;;;;13.77;2.97;;;27.20;73.90;;;;;;5052967;28;20668;-70
2021/03/05 05:36:45;;;;;;;15.07;3.08;;;26.80;74.60;;;;;;5053232;28;20410;-71
2021/03/05 05:39:12;;;;;;;11.93;2.70;;;26.20;75.50;;;;;;5053013;28;20245;-70
2021/03/05 05:41:42;;;;;;;12.37;2.70;;;25.60;76.20;;;;;;5052886;28;20271;-70
2021/03/05 05:44:10;;;;;;;11.83;3.13;;;25.20;77.40;;;;;;5052363;28;20207;-71
2021/03/05 05:46:39;;;;;;;12.00;2.97;;;24.90;77.70;;;;;;5053571;28;20207;-69
2021/03/05 05:49:08;;;;;;;14.53;3.00;;;24.50;79.10;;;;;;5052432;28;20712;-70
2021/03/05 05:51:39;;;;;;;15.07;3.27;;;24.50;80.60;;;;;;5052416;28;20272;-70
2021/03/05 05:54:14;;;;;;;13.70;2.47;;;25.90;78.50;;;;;;5053684;28;20232;-69
2021/03/05 05:56:43;;;;;;;14.40;2.73;;;26.50;76.00;;;;;;5053408;28;20262;-70
2021/03/05 05:59:11;;;;;;;16.43;3.30;;;25.90;76.70;;;;;;5053895;28;20203;-70
2021/03/05 06:01:40;;;;;;;13.17;2.40;;;25.40;78.50;;;;;;5054421;28;20175;-69
2021/03/05 06:04:08;;;;;;;11.10;2.57;;;25.20;78.90;;;;;;5058586;28;20245;-70
2021/03/05 06:06:38;;;;;;;12.60;2.57;;;24.90;80.10;;;;;;5055564;28;20275;-68
2021/03/05 06:09:06;;;;;;;15.93;2.93;;;24.70;79.00;;;;;;5059052;28;20189;-68
2021/03/05 06:11:34;;;;;;;11.70;2.40;;;24.60;79.70;;;;;;5053978;28;20275;-68
2021/03/05 06:14:07;;;;;;;10.10;2.90;;;24.20;80.70;;;;;;5053647;28;20187;-67
2021/03/05 06:16:35;;;;;;;11.70;3.00;;;23.90;81.20;;;;;;5053467;28;20191;-68
2021/03/05 06:19:18;;;;;;;11.37;2.50;;;24.90;78.90;;;;;;5051876;28;20226;-69
2021/03/05 06:21:46;;;;;;;12.90;2.80;;;26.20;76.40;;;;;;5052843;28;20174;-70
2021/03/05 06:24:13;;;;;;;12.80;2.50;;;26.20;75.60;;;;;;5053325;28;20216;-70
2021/03/05 06:26:58;;;;;;;11.77;3.50;;;25.30;77.40;;;;;;5052661;28;20183;-70
2021/03/05 06:29:45;;;;;;;15.33;3.80;;;24.80;79.40;;;;;;5052895;28;20192;-70
2021/03/05 06:32:21;;;;;;;10.83;3.20;;;24.20;80.50;;;;;;5035880;28;20190;-70
2021/03/05 06:34:54;;;;;;;17.13;4.73;;;23.90;81.20;;;;;;5045479;28;20202;-70
2021/03/05 06:37:24;;;;;;;16.57;3.03;;;24.00;80.60;;;;;;5050350;28;20946;-70
2021/03/05 06:39:58;;;;;;;16.20;3.10;;;23.90;80.50;;;;;;5052641;28;20187;-67
2021/03/05 06:42:26;;;;;;;13.47;3.07;;;23.70;81.30;;;;;;5050875;28;20665;-69
2021/03/05 06:44:54;;;;;;;13.30;3.20;;;23.50;81.50;;;;;;5052783;28;20220;-68
2021/03/05 06:47:25;;;;;;;17.03;3.17;;;23.30;83.00;;;;;;5052284;28;20206;-68
2021/03/05 06:49:53;;;;;;;17.70;3.03;;;23.30;83.40;;;;;;5045052;28;20223;-68
2021/03/05 06:52:21;;;;;;;20.83;3.27;;;23.20;84.00;;;;;;5048087;28;20774;-69
2021/03/05 06:54:49;;;;;;;16.37;3.37;;;23.10;84.70;;;;;;5051531;28;20576;-68
2021/03/05 06:57:27;;;;;;;17.37;3.20;;;22.90;85.00;;;;;;5053138;28;20192;-68
2021/03/05 06:59:54;;;;;;;13.67;3.30;;;22.80;84.50;;;;;;5052058;28;20226;-69
2021/03/05 07:02:30;;;;;;;16.33;3.13;;;22.70;85.20;;;;;;5052205;28;20202;-69
2021/03/05 07:04:58;;;;;;;14.00;3.10;;;22.80;85.30;;;;;;5052339;28;20221;-68
2021/03/05 07:07:25;;;;;;;19.80;3.17;;;22.60;85.90;;;;;;5052488;28;20194;-69
2021/03/05 07:09:55;;;;;;;20.10;3.80;;;22.50;86.70;;;;;;5050635;28;20176;-69
2021/03/05 07:12:24;;;;;;;15.23;3.17;;;22.50;86.80;;;;;;5052507;28;20180;-68
2021/03/05 07:15:06;;;;;;;14.53;3.50;;;22.50;86.80;;;;;;5042302;28;20188;-69
2021/03/05 07:17:34;;;;;;;18.63;3.40;;;22.60;87.00;;;;;;5051269;28;20198;-68
2021/03/05 07:20:02;;;;;;;18.57;4.23;;;22.60;87.70;;;;;;5047714;28;20245;-69
2021/03/05 07:22:31;;;;;;;13.97;3.20;;;22.70;88.00;;;;;;5052528;28;20183;-68
2021/03/05 07:25:02;;;;;;;13.80;3.07;;;22.70;88.00;;;;;;5065160;28;20302;-68
2021/03/05 07:27:37;;;;;;;12.43;3.07;;;22.60;87.60;;;;;;5060237;28;20216;-69
2021/03/05 07:30:11;;;;;;;16.40;3.27;;;22.50;87.80;;;;;;5051491;28;20186;-68
2021/03/05 07:32:49;;;;;;;17.33;3.40;;;22.40;88.20;;;;;;5052036;28;20176;-69
2021/03/05 07:35:28;;;;;;;20.70;4.20;;;22.30;88.70;;;;;;5052445;28;20642;-69
2021/03/05 07:38:03;;;;;;;13.83;3.30;;;22.20;88.90;;;;;;5051748;28;20184;-68
2021/03/05 07:40:31;;;;;;;12.83;3.43;;;22.20;88.90;;;;;;5051207;28;20191;-69
2021/03/05 07:43:04;;;;;;;13.70;3.27;;;22.10;88.90;;;;;;5052279;28;20630;-70
2021/03/05 07:45:31;;;;;;;16.30;3.33;;;22.10;89.40;;;;;;5052252;28;20220;-70
2021/03/05 07:48:00;;;;;;;18.10;2.93;;;22.00;90.00;;;;;;5051491;28;20176;-69
2021/03/05 07:50:29;;;;;;;15.50;3.67;;;22.00;89.70;;;;;;5050777;28;20534;-70
2021/03/05 07:52:59;;;;;;;13.30;3.07;;;21.90;89.90;;;;;;5051379;28;20179;-69
2021/03/05 07:55:37;;;;;;;17.63;3.13;;;21.90;89.80;;;;;;5051611;28;20698;-68
2021/03/05 07:58:05;;;;;;;18.57;3.47;;;21.80;89.50;;;;;;5051168;28;20186;-67
2021/03/05 08:00:51;;;;;;;20.27;3.37;;;21.80;90.10;;;;;;5038591;28;20255;-69
2021/03/05 08:03:23;;;;;;;19.00;3.67;;;21.70;90.20;;;;;;5040896;28;20206;-70
2021/03/05 08:05:51;;;;;;;12.77;3.30;;;21.80;90.30;;;;;;5051636;28;20212;-70
2021/03/05 08:08:29;;;;;;;14.33;3.97;;;21.70;90.40;;;;;;5045696;28;20182;-69
2021/03/05 08:11:03;;;;;;;16.57;4.20;;;21.70;90.50;;;;;;5047106;28;20187;-70
2021/03/05 08:14:10;;;;;;;22.00;4.00;;;21.60;90.50;;;;;;5054972;28;20203;-70
2021/03/05 08:16:31;;;;;;;18.60;3.30;;;21.60;90.60;;;;;;5051893;28;20210;-69
2021/03/05 08:19:07;;;;;;;21.40;3.13;;;21.60;90.40;;;;;;5055612;28;20184;-71
2021/03/05 08:22:09;;;;;;;19.50;4.20;;;21.60;90.50;;;;;;5054537;28;20184;-68
2021/03/05 08:24:41;;;;;;;18.23;3.40;;;21.60;90.60;;;;;;5034620;28;20686;-68
2021/03/05 08:27:35;;;;;;;20.00;3.63;;;21.50;90.70;;;;;;5050770;28;20552;-69
2021/03/05 08:30:08;;;;;;;21.07;3.90;;;21.50;90.70;;;;;;5053433;28;20310;-67
2021/03/05 08:32:37;;;;;;;24.03;4.07;;;21.50;90.90;;;;;;5046596;28;20211;-67
2021/03/05 08:35:12;;;;;;;16.33;3.17;;;21.40;90.50;;;;;;5055153;28;20286;-68
2021/03/05 08:37:44;;;;;;;15.07;3.43;;;21.30;90.70;;;;;;5045873;28;20321;-70
2021/03/05 08:40:11;;;;;;;16.20;3.93;;;21.30;91.00;;;;;;5048919;28;20194;-70
2021/03/05 08:42:43;;;;;;;13.33;3.63;;;21.30;91.10;;;;;;5053856;28;20214;-70
2021/03/05 08:45:22;;;;;;;18.00;3.97;;;21.40;90.90;;;;;;5054968;28;20620;-69
2021/03/05 08:47:54;;;;;;;12.53;3.40;;;21.40;90.90;;;;;;5054354;28;20255;-69
2021/03/05 08:50:27;;;;;;;17.33;3.77;;;21.50;91.00;;;;;;5053622;28;20172;-68
2021/03/05 08:52:54;;;;;;;17.10;3.43;;;21.50;91.30;;;;;;5045035;28;20182;-69
2021/03/05 08:55:22;;;;;;;23.60;3.43;;;21.50;91.30;;;;;;5053603;28;20540;-68
2021/03/05 08:57:54;;;;;;;16.93;3.13;;;21.50;91.20;;;;;;5052991;28;20180;-70
2021/03/05 09:00:27;;;;;;;14.13;3.50;;;21.50;91.20;;;;;;5053100;28;20534;-68
2021/03/05 09:03:13;;;;;;;18.57;3.97;;;21.40;91.30;;;;;;5052643;28;20172;-66
2021/03/05 09:05:43;;;;;;;22.50;6.33;;;21.30;91.30;;;;;;5055138;28;20219;-69
2021/03/05 09:08:13;;;;;;;20.67;4.43;;;21.30;91.40;;;;;;5054216;28;20592;-69
2021/03/05 09:11:01;;;;;;;20.27;3.63;;;21.30;91.50;;;;;;5054240;28;20207;-69
2021/03/05 09:13:36;;;;;;;15.57;4.90;;;21.30;91.40;;;;;;5054908;28;20710;-70
2021/03/05 09:16:05;;;;;;;17.53;3.13;;;21.30;91.30;;;;;;5053635;28;20542;-71
2021/03/05 09:18:35;;;;;;;14.17;3.67;;;21.30;91.10;;;;;;5052167;28;20241;-71
2021/03/05 09:21:06;;;;;;;14.30;3.77;;;21.30;91.20;;;;;;5054590;28;20666;-69
2021/03/05 09:23:42;;;;;;;17.83;3.43;;;21.30;91.20;;;;;;5052191;28;20180;-70
2021/03/05 09:26:09;;;;;;;14.83;3.40;;;21.30;91.20;;;;;;5054761;28;20188;-69
2021/03/05 09:28:44;;;;;;;15.63;3.40;;;21.30;91.10;;;;;;5054304;28;20578;-69
2021/03/05 09:31:17;;;;;;;11.37;3.57;;;21.20;91.10;;;;;;5054634;28;20188;-69
2021/03/05 09:33:46;;;;;;;19.47;3.43;;;21.30;91.30;;;;;;5054883;28;20172;-70
2021/03/05 09:36:19;;;;;;;17.17;3.53;;;21.30;91.30;;;;;;5052402;28;20172;-69
2021/03/05 09:39:00;;;;;;;18.30;3.00;;;21.20;91.10;;;;;;5046585;28;20187;-68
2021/03/05 09:41:29;;;;;;;25.33;3.47;;;21.20;91.20;;;;;;5054704;28;20638;-67
2021/03/05 09:44:04;;;;;;;16.33;2.97;;;21.20;91.20;;;;;;5052608;28;20180;-67
2021/03/05 09:46:41;;;;;;;18.37;3.30;;;21.20;91.70;;;;;;5054296;28;20198;-67
2021/03/05 09:49:21;;;;;;;15.87;3.43;;;21.20;91.70;;;;;;5051616;28;20194;-67
2021/03/05 09:51:49;;;;;;;26.23;5.03;;;21.20;91.70;;;;;;5051641;28;20576;-69
2021/03/05 09:54:17;;;;;;;18.47;3.60;;;21.20;91.70;;;;;;5053707;28;20730;-68
2021/03/05 09:56:48;;;;;;;18.20;3.53;;;21.20;91.50;;;;;;5053196;28;20187;-69
2021/03/05 09:59:15;;;;;;;17.93;3.20;;;21.20;91.50;;;;;;5053892;28;20299;-68
2021/03/05 10:01:44;;;;;;;16.30;3.63;;;21.20;91.50;;;;;;5053739;28;20222;-68
2021/03/05 10:04:12;;;;;;;14.97;3.07;;;21.20;91.60;;;;;;5050697;28;20203;-69
2021/03/05 10:06:40;;;;;;;15.37;3.23;;;21.20;91.70;;;;;;5053625;28;20191;-69
2021/03/05 10:09:18;;;;;;;16.43;4.03;;;21.20;91.60;;;;;;5050348;28;20176;-68
2021/03/05 10:11:46;;;;;;;21.47;3.33;;;21.20;91.70;;;;;;5044856;28;20271;-68
2021/03/05 10:14:36;;;;;;;12.37;3.10;;;21.20;91.70;;;;;;5052272;28;20219;-68
2021/03/05 10:17:19;;;;;;;14.87;3.07;;;21.20;91.80;;;;;;5052806;28;20168;-69
2021/03/05 10:19:47;;;;;;;17.50;3.37;;;21.20;91.90;;;;;;5049669;28;20179;-67
2021/03/05 10:22:14;;;;;;;25.27;3.57;;;21.20;91.80;;;;;;5052735;28;20208;-69
2021/03/05 10:24:42;;;;;;;16.60;3.10;;;21.20;91.80;;;;;;5051857;28;20560;-68
2021/03/05 10:29:46;;;;;;;14.60;3.10;;;21.10;91.70;;;;;;5042159;28;20656;-68
2021/03/05 10:32:32;;;;;;;21.10;3.50;;;21.00;91.60;;;;;;5069047;28;20601;-66
2021/03/05 10:35:09;;;;;;;18.30;3.17;;;21.10;91.60;;;;;;5049292;28;20180;-67
2021/03/05 10:37:38;;;;;;;23.17;4.30;;;21.00;91.40;;;;;;5053673;28;20642;-68
2021/03/05 10:40:08;;;;;;;16.23;3.67;;;21.10;91.60;;;;;;5053172;28;20176;-69
2021/03/05 10:42:36;;;;;;;13.40;3.10;;;21.00;91.70;;;;;;5052917;28;20180;-68
2021/03/05 10:45:05;;;;;;;16.17;2.93;;;21.00;91.80;;;;;;5051924;28;20220;-67
2021/03/05 10:47:33;;;;;;;17.60;3.00;;;21.10;92.00;;;;;;5050126;28;20254;-69
2021/03/05 10:50:03;;;;;;;18.73;4.07;;;21.00;92.10;;;;;;5048121;28;20212;-68
2021/03/05 10:52:30;;;;;;;17.20;4.07;;;21.00;92.10;;;;;;5052666;28;20176;-68
2021/03/05 10:54:58;;;;;;;21.47;3.37;;;21.00;92.30;;;;;;5050320;28;20180;-68
2021/03/05 10:57:25;;;;;;;14.40;3.17;;;21.10;92.40;;;;;;5047728;28;20191;-68
2021/03/05 10:59:52;;;;;;;16.47;3.80;;;21.10;92.40;;;;;;5053100;28;20184;-67
2021/03/05 11:02:20;;;;;;;18.20;3.50;;;21.10;92.30;;;;;;5049774;28;20187;-68
2021/03/05 11:04:47;;;;;;;22.47;3.27;;;21.10;92.40;;;;;;5052542;28;20211;-69
2021/03/05 11:07:15;;;;;;;13.17;3.23;;;21.10;92.40;;;;;;5052316;28;20188;-68
2021/03/05 11:09:42;;;;;;;12.33;3.20;;;21.10;92.50;;;;;;5051770;28;20187;-68
2021/03/05 11:12:10;;;;;;;16.50;3.30;;;21.10;92.50;;;;;;5052288;28;20184;-67
2021/03/05 11:14:38;;;;;;;21.17;4.90;;;21.00;92.50;;;;;;5051059;28;20659;-68
2021/03/05 11:17:05;;;;;;;15.17;3.70;;;21.00;92.50;;;;;;5060166;28;20270;-70
2021/03/05 11:19:35;;;;;;;22.83;4.13;;;20.90;92.40;;;;;;5064915;28;20690;-67
2021/03/05 11:22:03;;;;;;;19.60;3.67;;;21.00;92.40;;;;;;5065158;28;20278;-67
2021/03/05 11:24:30;;;;;;;19.73;3.50;;;21.00;92.30;;;;;;5047453;28;20204;-69
2021/03/05 11:26:58;;;;;;;17.50;4.07;;;21.00;92.20;;;;;;5050918;28;20566;-68
2021/03/05 11:29:25;;;;;;;15.43;3.17;;;21.00;92.40;;;;;;5037740;28;20180;-68
2021/03/05 11:31:53;;;;;;;19.43;2.87;;;20.90;92.50;;;;;;5044867;28;20667;-67
2021/03/05 11:34:20;;;;;;;23.10;4.13;;;20.90;92.80;;;;;;5051467;28;20180;-68
2021/03/05 11:36:49;;;;;;;17.43;3.27;;;20.90;92.70;;;;;;5046800;28;20585;-68
2021/03/05 11:39:16;;;;;;;16.23;2.87;;;20.90;92.90;;;;;;5052351;28;20187;-69
2021/03/05 11:41:44;;;;;;;16.70;3.03;;;20.90;93.00;;;;;;5051262;28;20183;-68
2021/03/05 11:44:11;;;;;;;23.80;4.00;;;20.90;93.10;;;;;;5052189;28;20199;-68
2021/03/05 11:46:39;;;;;;;22.30;4.00;;;20.80;93.10;;;;;;5052215;28;20183;-68
2021/03/05 11:49:07;;;;;;;20.57;3.93;;;20.90;93.20;;;;;;5051297;28;20654;-69
2021/03/05 11:51:34;;;;;;;18.73;3.37;;;20.80;93.10;;;;;;5052880;28;20590;-69
2021/03/05 11:54:02;;;;;;;18.83;3.83;;;20.70;93.20;;;;;;5052898;28;20212;-69
2021/03/05 11:56:29;;;;;;;15.03;3.43;;;20.70;93.30;;;;;;5051659;28;20266;-69
2021/03/05 11:58:57;;;;;;;17.90;4.10;;;20.70;93.40;;;;;;5051849;28;20533;-69
2021/03/05 12:01:24;;;;;;;15.67;3.53;;;20.70;93.50;;;;;;5052811;28;20203;-69
2021/03/05 12:03:52;;;;;;;19.10;4.43;;;20.70;93.70;;;;;;5046164;28;20530;-70
2021/03/05 12:06:22;;;;;;;20.33;3.63;;;20.70;93.80;;;;;;5051966;28;20245;-69
2021/03/05 12:08:50;;;;;;;17.03;3.63;;;20.70;94.00;;;;;;5050833;28;20179;-69
2021/03/05 12:11:17;;;;;;;21.27;3.90;;;20.70;94.00;;;;;;5049557;28;20306;-70
2021/03/05 12:13:46;;;;;;;23.33;3.80;;;20.80;94.10;;;;;;5051771;28;20184;-70
2021/03/05 12:16:14;;;;;;;22.97;3.97;;;20.60;94.40;;;;;;5047629;28;20199;-69
2021/03/05 12:18:42;;;;;;;16.23;3.70;;;20.60;94.60;;;;;;5047361;28;20263;-70
2021/03/05 12:21:09;;;;;;;14.30;3.33;;;20.50;94.80;;;;;;5050914;28;20271;-68
2021/03/05 12:23:37;;;;;;;19.00;3.33;;;20.50;95.00;;;;;;5051870;28;20271;-70
2021/03/05 12:26:05;;;;;;;18.10;3.90;;;20.50;95.00;;;;;;5046390;28;20220;-69
2021/03/05 12:28:32;;;;;;;18.27;3.87;;;20.50;94.80;;;;;;5051556;28;20220;-71
2021/03/05 12:30:59;;;;;;;23.07;4.10;;;20.50;94.80;;;;;;5050263;28;20544;-70
2021/03/05 12:33:27;;;;;;;17.40;4.20;;;20.50;94.50;;;;;;5050935;28;20642;-68
2021/03/05 12:35:54;;;;;;;18.53;3.03;;;20.50;94.30;;;;;;5050362;28;20192;-69
2021/03/05 12:38:22;;;;;;;17.77;3.47;;;20.60;94.30;;;;;;5051604;28;20195;-68
2021/03/05 12:40:50;;;;;;;17.73;4.17;;;20.50;94.60;;;;;;5050837;28;20197;-70
2021/03/05 12:43:17;;;;;;;20.60;3.40;;;20.40;94.80;;;;;;5051324;28;20567;-70
2021/03/05 12:45:45;;;;;;;28.70;13.57;;;20.40;94.90;;;;;;5051353;28;20224;-69
2021/03/05 12:48:12;;;;;;;18.27;3.97;;;20.40;94.90;;;;;;5051974;28;20472;-70
2021/03/05 12:50:40;;;;;;;20.03;3.80;;;20.40;94.90;;;;;;5050858;28;20176;-69
2021/03/05 12:53:07;;;;;;;19.37;4.57;;;20.40;95.00;;;;;;5052314;28;20190;-70
2021/03/05 12:55:34;;;;;;;24.37;4.17;;;20.40;95.00;;;;;;5051163;28;20510;-70